NFSM7: N Fork Spring River nr Purcell, MO

                                SHEF ID:       NFSM7     N Fork Spring River nr Purcell, MO
STATION TYPE:

STAGE RIV-FLOW
ft cfs
Ccp-Rev Ccp-Rev
(America/Chicago)
02/17 00:00 4.38 299
02/17 01:00 4.33 286
02/17 02:00 4.28 273
02/17 03:00 4.23 261
02/17 04:00 4.19 251
02/17 05:00 4.14 240
02/17 06:00 4.10 231
02/17 07:00 4.07 224
02/17 08:00 4.03 215
02/17 09:00 4.00 209
02/17 10:00 3.97 203
02/17 11:00 3.94 196
02/17 12:00 3.91 190
02/17 13:00 3.88 184
02/17 14:00 3.85 178
02/17 15:00 3.83 174
02/17 16:00 3.81 170
02/17 17:00 3.79 167
02/17 18:00 3.77 163
02/17 19:00 3.74 157
02/17 20:00 3.72 154
02/17 21:00 3.71 152
02/17 22:00 3.69 148
02/17 23:00 3.67 145
Data processed at Wed 18Feb2026 05:45 GMT

NOTICE: If you are parsing this page

Please convert to using our Data API. Starting early 2026 we will be migrating to: https://water.usace.army.mil with modern pages rendered in JavaScript. When this migration completes you will no longer be able to scrape this page! CWMSDataAPI (CDA)

Timeseries IDs (TSIDs)

TSIDs used from left to right in the data table
PURS.Stage.Inst.1Hour.0.Ccp-Rev
PURS.Flow.Inst.1Hour.0.Ccp-Rev

                            

All information presented herein is the property of the government of the United States of America and may be revised or deleted at any time without prior notice. Dissemination of this information without the expressed written consent of the Public Affairs Office, Tulsa District U.S. Army Corps of Engineers is strictly prohibited. These data are gathered electronically and, as presented, have NOT undergone any form of quality control. These data are NOT guaranteed to be valid or correct.